Time,TemperatureF,DewpointF,PressureIn,WindDirection,WindDirectionDegrees,WindSpeedMPH,WindSpeedGustMPH,Humidity,HourlyPrecipIn,Conditions,Clouds,dailyrainin,SolarRadiationWatts/m^2,SoftwareType,DateUTC
2013-02-06 00:12:00,47.0,42.0,30.30,NW,310,4.0,9.0,84,0.00,,,0.00,0.000000,,2013-02-06 05:12:00,
2013-02-06 00:22:00,47.0,42.0,30.30,NW,310,4.0,9.0,84,0.00,,,0.00,0.000000,,2013-02-06 05:22:00,
2013-02-06 00:32:00,47.0,42.0,30.30,NW,310,4.0,9.0,84,0.00,,,0.00,0.000000,,2013-02-06 05:32:00,
2013-02-06 00:42:00,47.0,42.0,30.30,NW,310,4.0,9.0,84,0.00,,,0.00,0.000000,,2013-02-06 05:42:00,
2013-02-06 01:11:00,46.0,44.0,30.30,West,270,4.0,6.0,91,0.00,,,0.00,0.000000,,2013-02-06 06:11:00,
2013-02-06 01:22:00,46.0,44.0,30.30,West,270,4.0,6.0,91,0.00,,,0.00,0.000000,,2013-02-06 06:22:00,
2013-02-06 01:32:00,46.0,44.0,30.30,West,270,4.0,6.0,91,0.00,,,0.00,0.000000,,2013-02-06 06:32:00,
2013-02-06 01:42:00,46.0,44.0,30.30,West,270,4.0,6.0,91,0.00,,,0.00,0.000000,,2013-02-06 06:42:00,
2013-02-06 02:11:00,43.0,42.0,30.30,SW,236,3.0,7.0,95,0.00,,,0.00,0.000000,,2013-02-06 07:11:00,
2013-02-06 02:22:00,43.0,42.0,30.30,SW,236,3.0,7.0,95,0.00,,,0.00,0.000000,,2013-02-06 07:22:00,
2013-02-06 02:32:00,43.0,42.0,30.30,SW,236,3.0,7.0,95,0.00,,,0.00,0.000000,,2013-02-06 07:32:00,
2013-02-06 02:42:00,43.0,42.0,30.30,SW,236,3.0,7.0,95,0.00,,,0.00,0.000000,,2013-02-06 07:42:00,
2013-02-06 03:11:00,42.0,41.0,30.31,WSW,242,4.0,6.0,96,0.00,,,0.00,0.000000,,2013-02-06 08:11:00,
2013-02-06 03:21:00,42.0,41.0,30.31,WSW,242,4.0,6.0,96,0.00,,,0.00,0.000000,,2013-02-06 08:21:00,
2013-02-06 03:32:00,42.0,41.0,30.31,WSW,242,4.0,6.0,96,0.00,,,0.00,0.000000,,2013-02-06 08:32:00,
2013-02-06 03:42:00,42.0,41.0,30.31,WSW,242,4.0,6.0,96,0.00,,,0.00,0.000000,,2013-02-06 08:42:00,
2013-02-06 04:11:00,38.0,36.0,30.32,West,267,3.0,6.0,94,0.00,,,0.00,0.000000,,2013-02-06 09:11:00,
2013-02-06 04:22:00,38.0,36.0,30.32,West,267,3.0,6.0,94,0.00,,,0.00,0.000000,,2013-02-06 09:22:00,
2013-02-06 04:32:00,38.0,36.0,30.32,West,267,3.0,6.0,94,0.00,,,0.00,0.000000,,2013-02-06 09:32:00,
2013-02-06 04:42:00,38.0,36.0,30.32,West,267,3.0,6.0,94,0.00,,,0.00,0.000000,,2013-02-06 09:42:00,
2013-02-06 05:11:00,40.0,40.0,30.34,WSW,244,4.0,6.0,99,0.00,,,0.00,0.000000,,2013-02-06 10:11:00,
2013-02-06 05:22:00,40.0,40.0,30.34,WSW,244,4.0,6.0,99,0.00,,,0.00,0.000000,,2013-02-06 10:22:00,
2013-02-06 05:32:00,40.0,40.0,30.34,WSW,244,4.0,6.0,99,0.00,,,0.00,0.000000,,2013-02-06 10:32:00,
2013-02-06 05:42:00,40.0,40.0,30.34,WSW,244,4.0,6.0,99,0.00,,,0.00,0.000000,,2013-02-06 10:42:00,
2013-02-06 06:11:00,40.0,40.0,30.36,WSW,252,4.0,7.0,99,0.00,,,0.00,0.000000,,2013-02-06 11:11:00,
2013-02-06 06:22:00,40.0,40.0,30.36,WSW,252,4.0,7.0,99,0.00,,,0.00,0.000000,,2013-02-06 11:22:00,
2013-02-06 06:32:00,40.0,40.0,30.36,WSW,252,4.0,7.0,99,0.00,,,0.00,0.000000,,2013-02-06 11:32:00,
2013-02-06 06:42:00,40.0,40.0,30.36,WSW,252,4.0,7.0,99,0.00,,,0.00,0.000000,,2013-02-06 11:42:00,
2013-02-06 07:12:00,37.0,37.0,30.38,WSW,255,3.0,6.0,100,0.00,,,0.00,0.000000,,2013-02-06 12:12:00,
2013-02-06 07:22:00,37.0,37.0,30.38,WSW,255,3.0,6.0,100,0.00,,,0.00,0.000000,,2013-02-06 12:22:00,
2013-02-06 07:32:00,37.0,37.0,30.38,WSW,255,3.0,6.0,100,0.00,,,0.00,0.000000,,2013-02-06 12:32:00,
2013-02-06 07:42:00,37.0,37.0,30.38,WSW,255,3.0,6.0,100,0.00,,,0.00,0.000000,,2013-02-06 12:42:00,
2013-02-06 08:12:00,35.0,35.0,30.42,WNW,282,3.0,6.0,100,0.00,,,0.00,6.000000,,2013-02-06 13:12:00,
2013-02-06 08:22:00,35.0,35.0,30.42,WNW,282,3.0,6.0,100,0.00,,,0.00,6.000000,,2013-02-06 13:22:00,
2013-02-06 08:32:00,35.0,35.0,30.42,WNW,282,3.0,6.0,100,0.00,,,0.00,6.000000,,2013-02-06 13:32:00,
2013-02-06 08:42:00,35.0,35.0,30.42,WNW,282,3.0,6.0,100,0.00,,,0.00,6.000000,,2013-02-06 13:42:00,
2013-02-06 09:11:00,37.0,37.0,30.44,North,355,4.0,7.0,99,0.00,,,0.00,43.000000,,2013-02-06 14:11:00,
2013-02-06 09:22:00,37.0,37.0,30.44,North,355,4.0,7.0,99,0.00,,,0.00,43.000000,,2013-02-06 14:22:00,
2013-02-06 09:32:00,37.0,37.0,30.44,North,355,4.0,7.0,99,0.00,,,0.00,43.000000,,2013-02-06 14:32:00,
2013-02-06 09:42:00,37.0,37.0,30.44,North,355,4.0,7.0,99,0.00,,,0.00,43.000000,,2013-02-06 14:42:00,
2013-02-06 10:11:00,50.0,44.0,30.46,NNE,19,4.0,10.0,79,0.00,,,0.00,228.000000,,2013-02-06 15:11:00,
2013-02-06 10:21:00,50.0,44.0,30.46,NNE,19,4.0,10.0,79,0.00,,,0.00,228.000000,,2013-02-06 15:21:00,
2013-02-06 10:42:00,50.0,44.0,30.46,NNE,19,4.0,10.0,79,0.00,,,0.00,228.000000,,2013-02-06 15:42:00,
2013-02-06 11:11:00,63.0,40.0,30.46,NE,47,5.0,11.0,43,0.00,,,0.00,600.000000,,2013-02-06 16:11:00,
2013-02-06 11:22:00,63.0,40.0,30.46,NE,47,5.0,11.0,43,0.00,,,0.00,600.000000,,2013-02-06 16:22:00,
2013-02-06 12:12:00,66.0,33.0,30.46,NW,319,3.0,12.0,29,0.00,,,0.00,750.000000,,2013-02-06 17:12:00,
2013-02-06 12:22:00,66.0,33.0,30.46,NW,319,3.0,12.0,29,0.00,,,0.00,750.000000,,2013-02-06 17:22:00,
2013-02-06 12:42:00,66.0,33.0,30.46,NW,319,3.0,12.0,29,0.00,,,0.00,750.000000,,2013-02-06 17:42:00,
2013-02-06 13:12:00,68.0,31.0,30.45,NNW,327,4.0,10.0,25,0.00,,,0.00,828.000000,,2013-02-06 18:12:00,
2013-02-06 13:23:00,68.0,31.0,30.45,NNW,327,4.0,10.0,25,0.00,,,0.00,828.000000,,2013-02-06 18:23:00,
2013-02-06 13:32:00,68.0,31.0,30.45,NNW,327,4.0,10.0,25,0.00,,,0.00,828.000000,,2013-02-06 18:32:00,
2013-02-06 13:42:00,68.0,31.0,30.45,NNW,327,4.0,10.0,25,0.00,,,0.00,828.000000,,2013-02-06 18:42:00,
2013-02-06 14:11:00,69.0,27.0,30.43,NW,322,5.0,11.0,21,0.00,,,0.00,814.000000,,2013-02-06 19:11:00,
2013-02-06 14:22:00,69.0,27.0,30.43,NW,322,5.0,11.0,21,0.00,,,0.00,814.000000,,2013-02-06 19:22:00,
2013-02-06 14:32:00,69.0,27.0,30.43,NW,322,5.0,11.0,21,0.00,,,0.00,814.000000,,2013-02-06 19:32:00,
2013-02-06 14:42:00,69.0,27.0,30.43,NW,322,5.0,11.0,21,0.00,,,0.00,814.000000,,2013-02-06 19:42:00,
2013-02-06 15:11:00,69.0,27.0,30.43,NW,308,4.0,13.0,21,0.00,,,0.00,717.000000,,2013-02-06 20:11:00,
2013-02-06 15:21:00,69.0,27.0,30.43,NW,308,4.0,13.0,21,0.00,,,0.00,717.000000,,2013-02-06 20:21:00,
2013-02-06 15:32:00,69.0,27.0,30.43,NW,308,4.0,13.0,21,0.00,,,0.00,717.000000,,2013-02-06 20:32:00,
2013-02-06 15:42:00,69.0,27.0,30.43,NW,308,4.0,13.0,21,0.00,,,0.00,717.000000,,2013-02-06 20:42:00,
2013-02-06 16:11:00,68.0,27.0,30.43,West,265,6.0,14.0,21,0.00,,,0.00,551.000000,,2013-02-06 21:11:00,
2013-02-06 16:21:00,68.0,27.0,30.43,West,265,6.0,14.0,21,0.00,,,0.00,551.000000,,2013-02-06 21:21:00,
2013-02-06 16:32:00,68.0,27.0,30.43,West,265,6.0,14.0,21,0.00,,,0.00,551.000000,,2013-02-06 21:32:00,
2013-02-06 16:42:00,68.0,27.0,30.43,West,265,6.0,14.0,21,0.00,,,0.00,551.000000,,2013-02-06 21:42:00,
2013-02-06 17:11:00,67.0,26.0,30.44,WSW,245,3.0,10.0,21,0.00,,,0.00,350.000000,,2013-02-06 22:11:00,
2013-02-06 17:22:00,67.0,26.0,30.44,WSW,245,3.0,10.0,21,0.00,,,0.00,350.000000,,2013-02-06 22:22:00,
2013-02-06 17:32:00,67.0,26.0,30.44,WSW,245,3.0,10.0,21,0.00,,,0.00,350.000000,,2013-02-06 22:32:00,
2013-02-06 17:42:00,67.0,26.0,30.44,WSW,245,3.0,10.0,21,0.00,,,0.00,350.000000,,2013-02-06 22:42:00,
2013-02-06 18:11:00,59.0,29.0,30.46,NNW,333,3.0,8.0,32,0.00,,,0.00,110.000000,,2013-02-06 23:11:00,
2013-02-06 18:21:00,59.0,29.0,30.46,NNW,333,3.0,8.0,32,0.00,,,0.00,110.000000,,2013-02-06 23:21:00,
2013-02-06 18:32:00,59.0,29.0,30.46,NNW,333,3.0,8.0,32,0.00,,,0.00,110.000000,,2013-02-06 23:32:00,
2013-02-06 18:42:00,59.0,29.0,30.46,NNW,333,3.0,8.0,32,0.00,,,0.00,110.000000,,2013-02-06 23:42:00,
2013-02-06 19:11:00,52.0,28.0,30.48,NNW,347,4.0,7.0,40,0.00,,,0.00,1.000000,,2013-02-07 00:11:00,
2013-02-06 19:22:00,52.0,28.0,30.48,NNW,347,4.0,7.0,40,0.00,,,0.00,1.000000,,2013-02-07 00:22:00,
2013-02-06 19:32:00,52.0,28.0,30.48,NNW,347,4.0,7.0,40,0.00,,,0.00,1.000000,,2013-02-07 00:32:00,
2013-02-06 19:42:00,52.0,28.0,30.48,NNW,347,4.0,7.0,40,0.00,,,0.00,1.000000,,2013-02-07 00:42:00,
2013-02-06 20:11:00,50.0,30.0,30.49,ENE,57,4.0,7.0,46,0.00,,,0.00,0.000000,,2013-02-07 01:11:00,
2013-02-06 20:21:00,50.0,30.0,30.49,ENE,57,4.0,7.0,46,0.00,,,0.00,0.000000,,2013-02-07 01:21:00,
2013-02-06 20:32:00,50.0,30.0,30.49,ENE,57,4.0,7.0,46,0.00,,,0.00,0.000000,,2013-02-07 01:32:00,
2013-02-06 20:42:00,50.0,30.0,30.49,ENE,57,4.0,7.0,46,0.00,,,0.00,0.000000,,2013-02-07 01:42:00,
2013-02-06 21:12:00,46.0,31.0,30.51,NNW,329,6.0,14.0,56,0.00,,,0.00,0.000000,,2013-02-07 02:12:00,
2013-02-06 21:21:00,46.0,31.0,30.51,NNW,329,6.0,14.0,56,0.00,,,0.00,0.000000,,2013-02-07 02:21:00,
2013-02-06 21:32:00,46.0,31.0,30.51,NNW,329,6.0,14.0,56,0.00,,,0.00,0.000000,,2013-02-07 02:32:00,
2013-02-06 21:42:00,46.0,31.0,30.51,NNW,329,6.0,14.0,56,0.00,,,0.00,0.000000,,2013-02-07 02:42:00,
2013-02-06 22:11:00,44.0,28.0,30.51,ENE,73,5.0,10.0,53,0.00,,,0.00,0.000000,,2013-02-07 03:11:00,
2013-02-06 22:21:00,44.0,28.0,30.51,ENE,73,5.0,10.0,53,0.00,,,0.00,0.000000,,2013-02-07 03:21:00,
2013-02-06 22:32:00,44.0,28.0,30.51,ENE,73,5.0,10.0,53,0.00,,,0.00,0.000000,,2013-02-07 03:32:00,
2013-02-06 22:42:00,44.0,28.0,30.51,ENE,73,5.0,10.0,53,0.00,,,0.00,0.000000,,2013-02-07 03:42:00,
2013-02-06 23:11:00,45.0,25.0,30.52,East,81,5.0,14.0,46,0.00,,,0.00,0.000000,,2013-02-07 04:11:00,
2013-02-06 23:22:00,45.0,25.0,30.52,East,81,5.0,14.0,46,0.00,,,0.00,0.000000,,2013-02-07 04:22:00,
2013-02-06 23:32:00,45.0,25.0,30.52,East,81,5.0,14.0,46,0.00,,,0.00,0.000000,,2013-02-07 04:32:00,
2013-02-06 23:42:00,45.0,25.0,30.52,East,81,5.0,14.0,46,0.00,,,0.00,0.000000,,2013-02-07 04:42:00,